createdAt,value
2022-08-07T00:01:43.170Z,96794.88
2022-08-07T00:03:53.238Z,96795.16
2022-08-07T00:06:29.462Z,96799.00
2022-08-07T00:09:17.134Z,96814.22
2022-08-07T00:11:55.521Z,96806.56
2022-08-07T00:14:25.326Z,96805.81
2022-08-07T00:16:52.625Z,96808.63
2022-08-07T00:19:21.393Z,96798.75
2022-08-07T00:21:55.970Z,96806.66
2022-08-07T00:24:24.158Z,96802.00
2022-08-07T00:27:06.498Z,96802.97
2022-08-07T00:29:37.149Z,96803.13
2022-08-07T00:32:05.981Z,96803.03
2022-08-07T00:34:35.364Z,96803.03
2022-08-07T00:37:02.473Z,96805.25
2022-08-07T00:39:32.073Z,96804.13
2022-08-07T00:42:02.158Z,96803.03
2022-08-07T00:44:33.022Z,96805.25
2022-08-07T00:47:00.470Z,96800.63
2022-08-07T00:50:20.813Z,96801.72
2022-08-07T00:52:14.775Z,96798.66
2022-08-07T00:54:46.440Z,96806.38
2022-08-07T00:57:13.898Z,96803.06
2022-08-07T00:59:41.381Z,96804.06
2022-08-07T01:02:13.925Z,96801.72
2022-08-07T01:04:56.905Z,96803.50
2022-08-07T01:07:27.531Z,96791.53
2022-08-07T01:10:06.897Z,96792.81
2022-08-07T01:12:53.553Z,96794.81
2022-08-07T01:16:00.470Z,96798.00
2022-08-07T01:18:10.214Z,96809.13
2022-08-07T01:20:57.444Z,96811.00
2022-08-07T01:23:36.739Z,96802.19
2022-08-07T01:26:07.942Z,96808.34
2022-08-07T01:28:46.282Z,96805.38
2022-08-07T01:31:19.824Z,96810.13
2022-08-07T01:33:47.713Z,96807.47
2022-08-07T01:36:33.455Z,96818.88
2022-08-07T01:39:01.290Z,96812.41
2022-08-07T01:41:31.252Z,96822.25
2022-08-07T01:43:59.288Z,96810.06
2022-08-07T01:46:28.418Z,96798.59
2022-08-07T01:48:59.802Z,96804.53
2022-08-07T01:52:02.706Z,96799.47
2022-08-07T01:54:32.629Z,96796.34
2022-08-07T01:57:24.104Z,96802.47
2022-08-07T02:00:01.583Z,96806.66
2022-08-07T02:03:12.441Z,96813.13
2022-08-07T02:05:48.267Z,96818.63
2022-08-07T02:08:24.143Z,96827.38
2022-08-07T02:10:55.239Z,96830.13
2022-08-07T02:14:00.690Z,96825.19
2022-08-07T02:16:16.089Z,96814.72
2022-08-07T02:18:46.807Z,96810.63
2022-08-07T02:21:16.223Z,96811.41
2022-08-07T02:23:45.085Z,96810.53
2022-08-07T02:26:32.760Z,96808.44
2022-08-07T02:29:02.389Z,96804.81
2022-08-07T02:31:32.762Z,96801.28
2022-08-07T02:34:10.868Z,96806.38
2022-08-07T02:36:41.288Z,96809.53
2022-08-07T02:39:16.034Z,96808.56
2022-08-07T02:41:50.684Z,96807.47
2022-08-07T02:44:23.815Z,96809.56
2022-08-07T02:46:55.674Z,96807.63
2022-08-07T02:49:29.125Z,96806.53
2022-08-07T02:52:21.391Z,96801.22
2022-08-07T02:54:50.648Z,96806.09
2022-08-07T02:57:22.241Z,96807.81
2022-08-07T03:00:00.808Z,96799.44
2022-08-07T03:02:28.499Z,96800.06
2022-08-07T03:04:56.649Z,96808.88
2022-08-07T03:08:05.250Z,96820.63
2022-08-07T03:10:11.800Z,96815.56
2022-08-07T03:12:42.054Z,96821.53
2022-08-07T03:15:10.905Z,96834.31
2022-08-07T03:17:53.692Z,96848.88
2022-08-07T03:20:21.862Z,96841.75
2022-08-07T03:22:50.560Z,96856.84
2022-08-07T03:25:21.082Z,96852.69
2022-08-07T03:27:59.767Z,96826.91
2022-08-07T03:30:37.505Z,96831.78
2022-08-07T03:33:05.193Z,96825.41
2022-08-07T03:35:43.847Z,96827.88
2022-08-07T03:38:21.092Z,96838.72
2022-08-07T03:40:57.733Z,96820.44
2022-08-07T03:43:26.576Z,96809.34
2022-08-07T03:45:53.707Z,96810.44
2022-08-07T03:48:20.933Z,96811.25
2022-08-07T03:50:55.923Z,96817.69
2022-08-07T03:54:00.586Z,96808.13
2022-08-07T03:56:14.905Z,96809.56
2022-08-07T03:59:08.794Z,96807.91
2022-08-07T04:01:30.217Z,96801.28
2022-08-07T04:03:59.981Z,96793.81
2022-08-07T04:06:37.045Z,96792.16
2022-08-07T04:09:05.923Z,96794.47
2022-08-07T04:12:23.693Z,96790.84
2022-08-07T04:14:38.484Z,96798.00
2022-08-07T04:17:20.376Z,96792.38
2022-08-07T04:19:56.049Z,96800.63
2022-08-07T04:22:27.633Z,96792.38
2022-08-07T04:24:58.836Z,96796.34
2022-08-07T04:27:28.491Z,96794.41
2022-08-07T04:30:04.443Z,96805.00
2022-08-07T04:32:37.757Z,96802.59
2022-08-07T04:35:07.246Z,96803.03
2022-08-07T04:37:40.465Z,96801.94
2022-08-07T04:40:29.699Z,96799.28
2022-08-07T04:43:02.124Z,96801.81
2022-08-07T04:45:57.491Z,96807.25
2022-08-07T04:49:01.568Z,96810.03
2022-08-07T04:51:51.131Z,96813.94
2022-08-07T04:54:22.881Z,96809.91
2022-08-07T04:58:12.544Z,96810.56
2022-08-07T05:00:18.750Z,96797.44
2022-08-07T05:02:58.983Z,96808.56
2022-08-07T05:05:53.842Z,96809.88
2022-08-07T05:08:45.765Z,96817.13
2022-08-07T05:11:27.881Z,96834.75
2022-08-07T05:14:51.886Z,96824.69
2022-08-07T05:17:11.871Z,96836.69
2022-08-07T05:19:45.317Z,96835.78
2022-08-07T05:22:26.500Z,96849.88
2022-08-07T05:24:57.255Z,96862.09
2022-08-07T05:28:02.997Z,96850.88
2022-08-07T05:30:16.669Z,96848.31
2022-08-07T05:32:59.793Z,96849.22
2022-08-07T05:35:33.215Z,96844.06
2022-08-07T05:38:08.572Z,96853.28
2022-08-07T05:40:38.150Z,96857.00
2022-08-07T05:43:18.717Z,96845.66
2022-08-07T05:45:48.388Z,96853.84
2022-08-07T05:48:15.631Z,96862.06
2022-08-07T05:50:44.499Z,96857.63
2022-08-07T05:54:13.413Z,96873.06
2022-08-07T05:56:01.822Z,96885.75
2022-08-07T05:58:36.533Z,96879.59
2022-08-07T06:01:06.006Z,96892.09
2022-08-07T06:03:53.235Z,96897.22
2022-08-07T06:06:29.996Z,96897.63
2022-08-07T06:09:04.408Z,96900.66
2022-08-07T06:11:33.354Z,96900.78
2022-08-07T06:14:13.213Z,96910.25
2022-08-07T06:16:50.279Z,96896.13
2022-08-07T06:19:52.025Z,96902.34
2022-08-07T06:22:14.426Z,96902.16
2022-08-07T06:24:57.756Z,96898.69
2022-08-07T06:27:44.490Z,96895.72
2022-08-07T06:30:31.800Z,96893.59
2022-08-07T06:32:59.452Z,96899.06
2022-08-07T06:35:39.043Z,96895.00
2022-08-07T06:38:20.552Z,96880.34
2022-08-07T06:40:50.859Z,96883.31
2022-08-07T06:43:22.192Z,96887.72
2022-08-07T06:45:49.916Z,96869.91
2022-08-07T06:48:24.879Z,96873.25
2022-08-07T06:50:54.935Z,96865.78
2022-08-07T06:55:27.766Z,96863.19
2022-08-07T06:56:15.364Z,96861.97
2022-08-07T07:00:11.473Z,96858.06
2022-08-07T07:01:43.996Z,96874.09
2022-08-07T07:04:32.737Z,96866.00
2022-08-07T07:07:10.517Z,96870.66
2022-08-07T07:09:48.217Z,96868.75
2022-08-07T07:12:38.311Z,96875.19
2022-08-07T07:15:26.257Z,96879.97
2022-08-07T07:17:58.111Z,96882.94
2022-08-07T07:20:36.229Z,96880.38
2022-08-07T07:24:10.937Z,96876.69
2022-08-07T07:26:35.524Z,96876.53
2022-08-07T07:29:39.390Z,96876.66
2022-08-07T07:31:44.445Z,96872.06
2022-08-07T07:34:19.770Z,96873.72
2022-08-07T07:36:52.716Z,96862.50
2022-08-07T07:39:25.705Z,96874.25
2022-08-07T07:42:13.342Z,96876.91
2022-08-07T07:44:49.375Z,96876.50
2022-08-07T07:47:23.636Z,96870.03
2022-08-07T07:50:36.178Z,96880.81
2022-08-07T07:52:41.727Z,96880.31
2022-08-07T07:55:10.928Z,96893.56
2022-08-07T07:57:51.655Z,96896.78
2022-08-07T08:00:29.230Z,96883.34
2022-08-07T08:03:16.567Z,96878.81
2022-08-07T08:05:53.922Z,96876.72
2022-08-07T08:08:35.238Z,96878.75
2022-08-07T08:11:06.029Z,96883.25
2022-08-07T08:13:53.050Z,96881.31
2022-08-07T08:16:24.972Z,96893.28
2022-08-07T08:18:55.091Z,96897.00
2022-08-07T08:22:02.637Z,96894.22
2022-08-07T08:24:57.153Z,96894.34
2022-08-07T08:27:39.000Z,96910.16
2022-08-07T08:30:17.295Z,96916.13
2022-08-07T08:32:53.667Z,96907.88
2022-08-07T08:38:41.188Z,96897.72
2022-08-07T08:41:57.705Z,96895.75
2022-08-07T08:44:29.275Z,96888.84
2022-08-07T08:47:09.910Z,96886.84
2022-08-07T08:50:05.714Z,96888.50
2022-08-07T08:52:40.766Z,96885.44
2022-08-07T08:55:54.784Z,96900.59
2022-08-07T08:58:50.706Z,96881.47
2022-08-07T09:01:40.212Z,96908.53
2022-08-07T09:04:35.136Z,96893.44
2022-08-07T09:07:24.460Z,96893.59
2022-08-07T09:09:56.749Z,96913.44
2022-08-07T09:12:32.885Z,96912.69
2022-08-07T09:16:23.531Z,96920.03
2022-08-07T09:18:20.591Z,96909.75
2022-08-07T09:21:58.320Z,96921.94
2022-08-07T09:27:59.614Z,96901.28
2022-08-07T09:30:40.632Z,96904.34
2022-08-07T09:33:41.324Z,96902.84
2022-08-07T09:36:22.861Z,96907.69
2022-08-07T09:53:22.574Z,96882.09
2022-08-07T09:56:03.084Z,96867.78
2022-08-07T09:59:14.587Z,96862.19
2022-08-07T10:02:35.011Z,96872.66
2022-08-07T10:05:17.430Z,96872.16
2022-08-07T10:07:54.989Z,96870.81
2022-08-07T10:11:16.387Z,96865.69
2022-08-07T10:14:11.159Z,96869.91
2022-08-07T10:16:59.505Z,96849.63
2022-08-07T10:19:55.150Z,96832.41
2022-08-07T10:22:46.640Z,96843.03
2022-08-07T10:25:42.481Z,96854.97
2022-08-07T10:28:31.855Z,96851.63
2022-08-07T10:31:58.011Z,96844.19
2022-08-07T10:35:08.942Z,96846.47
2022-08-07T10:38:00.963Z,96830.31
2022-08-07T10:40:34.185Z,96839.16
2022-08-07T10:43:34.713Z,96832.25
2022-08-07T10:46:09.608Z,96826.13
2022-08-07T10:49:03.942Z,96825.97
2022-08-07T10:52:02.339Z,96824.81
2022-08-07T10:55:01.374Z,96823.34
2022-08-07T10:57:58.536Z,96842.41
2022-08-07T11:00:39.652Z,96826.56
2022-08-07T11:03:37.774Z,96825.50
2022-08-07T11:06:26.875Z,96833.31
2022-08-07T11:09:11.211Z,96828.72
2022-08-07T11:11:53.696Z,96826.53
2022-08-07T11:14:44.915Z,96815.94
2022-08-07T11:17:56.746Z,96820.38
2022-08-07T11:20:47.183Z,96823.41
2022-08-07T11:23:30.224Z,96812.81
2022-08-07T11:26:09.121Z,96819.78
2022-08-07T11:28:53.316Z,96809.91
2022-08-07T11:31:30.495Z,96817.28
2022-08-07T11:34:16.349Z,96822.16
2022-08-07T11:37:02.763Z,96820.88
2022-08-07T11:41:18.187Z,96824.56
2022-08-07T11:44:17.124Z,96824.41
2022-08-07T11:47:38.594Z,96823.81
2022-08-07T11:50:32.195Z,96824.13
2022-08-07T11:53:08.353Z,96822.44
2022-08-07T11:56:09.664Z,96815.88
2022-08-07T11:58:49.741Z,96824.41
2022-08-07T12:01:59.083Z,96818.19
2022-08-07T12:04:43.021Z,96835.75
2022-08-07T12:07:27.325Z,96831.47
2022-08-07T12:10:05.771Z,96833.31
2022-08-07T12:13:11.592Z,96817.84
2022-08-07T12:16:06.741Z,96824.44
2022-08-07T12:18:45.710Z,96815.72
2022-08-07T12:22:35.876Z,96816.19
2022-08-07T12:24:38.045Z,96818.78
2022-08-07T12:27:16.745Z,96817.97
2022-08-07T12:29:51.855Z,96817.66
2022-08-07T12:32:34.732Z,96813.44
2022-08-07T12:35:08.443Z,96813.31
2022-08-07T12:38:11.258Z,96821.69
2022-08-07T12:40:47.269Z,96822.75
2022-08-07T12:44:01.820Z,96826.78
2022-08-07T12:46:32.571Z,96840.31
2022-08-07T12:49:25.810Z,96847.38
2022-08-07T12:52:17.881Z,96871.22
2022-08-07T12:55:00.192Z,96871.69
2022-08-07T12:58:00.380Z,96882.00
2022-08-07T13:00:35.851Z,96885.66
2022-08-07T13:03:26.874Z,96906.25
2022-08-07T13:06:29.739Z,96900.22
2022-08-07T13:09:33.392Z,96919.84
2022-08-07T13:12:28.976Z,96913.56
2022-08-07T13:15:32.527Z,96917.00
2022-08-07T13:18:26.043Z,96905.16
2022-08-07T13:21:02.783Z,96907.38
2022-08-07T13:24:01.469Z,96893.75
2022-08-07T13:26:56.049Z,96893.84
2022-08-07T13:29:42.551Z,96897.78
2022-08-07T13:32:42.230Z,96895.16
2022-08-07T13:35:24.049Z,96884.16
2022-08-07T13:38:13.365Z,96886.22
2022-08-07T13:40:58.099Z,96872.72
2022-08-07T13:43:27.672Z,96862.59
2022-08-07T13:46:20.839Z,96858.53
2022-08-07T13:48:51.985Z,96842.78
2022-08-07T13:51:28.050Z,96848.50
2022-08-07T13:54:16.581Z,96838.59
2022-08-07T13:56:51.755Z,96839.28
2022-08-07T13:59:30.619Z,96833.84
2022-08-07T14:02:08.719Z,96822.81
2022-08-07T14:04:50.233Z,96831.41
2022-08-07T14:07:27.425Z,96833.31
2022-08-07T14:10:12.538Z,96826.22
2022-08-07T14:13:00.473Z,96821.50
2022-08-07T14:15:39.709Z,96820.91
2022-08-07T14:18:29.351Z,96829.41
2022-08-07T14:21:21.081Z,96832.31
2022-08-07T14:24:03.655Z,96831.63
2022-08-07T14:28:09.478Z,96831.34
2022-08-07T14:30:05.723Z,96827.53
2022-08-07T14:32:46.104Z,96824.56
2022-08-07T14:35:45.827Z,96823.13
2022-08-07T14:38:09.132Z,96815.72
2022-08-07T14:41:14.683Z,96805.09
2022-08-07T14:44:08.126Z,96808.69
2022-08-07T14:46:51.721Z,96814.13
2022-08-07T14:49:57.115Z,96812.41
2022-08-07T14:52:10.989Z,96804.09
2022-08-07T14:54:42.222Z,96802.06
2022-08-07T14:57:18.683Z,96804.63
2022-08-07T15:00:04.675Z,96800.50
2022-08-07T15:02:34.541Z,96798.47
2022-08-07T15:05:02.648Z,96792.31
2022-08-07T15:07:47.533Z,96790.59
2022-08-07T15:10:26.499Z,96791.94
2022-08-07T15:13:00.086Z,96782.31
2022-08-07T15:15:39.501Z,96790.75
2022-08-07T15:21:44.138Z,96787.25
2022-08-07T15:25:13.104Z,96793.81
2022-08-07T15:26:55.869Z,96798.03
2022-08-07T15:30:06.580Z,96798.75
2022-08-07T15:32:13.246Z,96800.63
2022-08-07T15:34:56.966Z,96810.16
2022-08-07T15:38:04.730Z,96809.03
2022-08-07T15:55:18.458Z,96819.91
2022-08-07T15:57:53.036Z,96823.13
2022-08-07T16:00:34.138Z,96823.09
2022-08-07T16:03:21.362Z,96809.44
2022-08-07T16:05:57.354Z,96806.56
2022-08-07T16:08:31.704Z,96808.38
2022-08-07T16:11:26.944Z,96803.38
2022-08-07T16:14:04.330Z,96813.44
2022-08-07T16:16:43.225Z,96820.41
2022-08-07T16:19:59.582Z,96829.56
2022-08-07T16:22:55.827Z,96825.28
2022-08-07T16:25:54.740Z,96829.06
2022-08-07T16:30:07.389Z,96824.34
2022-08-07T16:31:51.589Z,96823.53
2022-08-07T16:34:48.345Z,96826.00
2022-08-07T16:38:06.404Z,96822.94
2022-08-07T16:40:37.009Z,96819.69
2022-08-07T16:44:02.398Z,96832.94
2022-08-07T16:47:16.391Z,96821.28
2022-08-07T16:50:36.247Z,96825.66
2022-08-07T16:54:02.413Z,96826.78
2022-08-07T16:56:20.630Z,96830.75
2022-08-07T16:59:11.190Z,96844.41
2022-08-07T17:02:04.925Z,96848.41
2022-08-07T17:04:50.908Z,96838.63
2022-08-07T17:07:51.487Z,96841.06
2022-08-07T17:10:32.230Z,96854.44
2022-08-07T17:13:40.376Z,96857.16
2022-08-07T17:16:24.947Z,96853.84
2022-08-07T17:18:51.666Z,96864.97
2022-08-07T17:21:24.635Z,96871.34
2022-08-07T17:24:37.361Z,96874.41
2022-08-07T17:27:19.591Z,96868.34
2022-08-07T17:30:15.025Z,96871.16
2022-08-07T17:34:08.791Z,96877.00
2022-08-07T17:36:02.994Z,96858.72
2022-08-07T17:38:39.631Z,96868.53
2022-08-07T17:42:01.943Z,96866.47
2022-08-07T17:44:49.922Z,96869.31
2022-08-07T17:47:55.186Z,96866.50
2022-08-07T17:50:49.202Z,96880.38
2022-08-07T17:53:59.882Z,96879.38
2022-08-07T17:56:28.485Z,96883.41
2022-08-07T17:58:56.982Z,96892.28
2022-08-07T18:01:36.551Z,96901.88
2022-08-07T18:04:24.557Z,96904.56
2022-08-07T18:07:21.026Z,96914.00
2022-08-07T18:10:07.133Z,96914.00
2022-08-07T18:13:11.624Z,96934.75
2022-08-07T18:16:00.450Z,96940.13
2022-08-07T18:21:03.562Z,96936.50
2022-08-07T18:22:03.642Z,96940.31
2022-08-07T18:24:51.497Z,96943.59
2022-08-07T18:27:49.243Z,96944.16
2022-08-07T18:30:31.661Z,96945.88
2022-08-07T18:33:32.031Z,96950.47
2022-08-07T18:36:35.666Z,96960.31
2022-08-07T18:40:05.808Z,96959.91
2022-08-07T18:42:29.259Z,96980.81
2022-08-07T18:45:42.853Z,96979.25
2022-08-07T18:48:08.208Z,96981.78
2022-08-07T18:50:49.152Z,96984.81
2022-08-07T18:53:46.346Z,96993.22
2022-08-07T18:56:40.019Z,96993.22
2022-08-07T18:59:59.515Z,96985.50
2022-08-07T19:03:11.682Z,96998.22
2022-08-07T19:06:16.900Z,97014.88
2022-08-07T19:08:46.602Z,97002.53
2022-08-07T19:11:37.341Z,97012.53
2022-08-07T19:14:17.095Z,97004.56
2022-08-07T19:17:05.933Z,97007.00
2022-08-07T19:19:48.814Z,97002.16
2022-08-07T19:22:31.238Z,97012.81
2022-08-07T19:25:05.790Z,97016.78
2022-08-07T19:28:57.515Z,97019.28
2022-08-07T19:31:06.292Z,97025.25
2022-08-07T19:33:18.751Z,97039.03
2022-08-07T19:36:01.119Z,97040.28
2022-08-07T19:38:32.213Z,97042.75
2022-08-07T19:41:02.585Z,97036.91
2022-08-07T19:43:48.697Z,97036.50
2022-08-07T19:46:26.328Z,97030.94
2022-08-07T19:49:02.986Z,97038.38
2022-08-07T19:51:52.953Z,97055.78
2022-08-07T19:54:31.939Z,97053.47
2022-08-07T19:57:59.984Z,97057.13
2022-08-07T20:00:02.163Z,97051.81
2022-08-07T20:02:39.185Z,97049.00
2022-08-07T20:05:08.710Z,97054.00
2022-08-07T20:07:47.747Z,97032.47
2022-08-07T20:10:37.815Z,97039.00
2022-08-07T20:13:23.816Z,97025.91
2022-08-07T20:15:57.886Z,97026.41
2022-08-07T20:18:33.808Z,97024.19
2022-08-07T20:21:03.930Z,97003.38
2022-08-07T20:24:00.983Z,97000.50
2022-08-07T20:26:45.090Z,97006.09
2022-08-07T20:29:48.647Z,96991.78
2022-08-07T20:32:05.729Z,96993.31
2022-08-07T20:34:54.554Z,97004.50
2022-08-07T20:37:29.397Z,96992.66
2022-08-07T20:40:02.677Z,96998.50
2022-08-07T20:42:31.891Z,97018.38
2022-08-07T20:45:01.194Z,97032.56
2022-08-07T20:47:56.013Z,97047.25
2022-08-07T20:50:22.339Z,97052.25
2022-08-07T20:52:51.863Z,97042.88
2022-08-07T20:55:23.683Z,97050.38
2022-08-07T20:58:03.446Z,97051.56
2022-08-07T21:00:42.785Z,97058.16
2022-08-07T21:03:14.129Z,97051.28
2022-08-07T21:05:55.904Z,97057.38
2022-08-07T21:08:34.989Z,97058.81
2022-08-07T21:11:05.298Z,97055.19
2022-08-07T21:13:44.055Z,97065.19
2022-08-07T21:16:37.765Z,97061.53
2022-08-07T21:19:32.087Z,97074.44
2022-08-07T21:22:16.470Z,97071.91
2022-08-07T21:25:17.883Z,97079.94
2022-08-07T21:28:02.120Z,97095.13
2022-08-07T21:31:31.402Z,97088.31
2022-08-07T21:34:48.556Z,97092.75
2022-08-07T21:37:58.095Z,97083.56
2022-08-07T21:40:41.402Z,97079.94
2022-08-07T21:43:17.284Z,97089.72
2022-08-07T21:46:09.033Z,97089.31
2022-08-07T21:48:58.833Z,97084.81
2022-08-07T21:51:54.526Z,97085.88
2022-08-07T21:54:33.590Z,97077.00
2022-08-07T21:57:05.982Z,97080.44
2022-08-07T22:00:04.947Z,97092.47
2022-08-07T22:03:05.704Z,97093.75
2022-08-07T22:05:44.430Z,97081.19
2022-08-07T22:08:18.815Z,97088.94
2022-08-07T22:10:50.291Z,97074.06
2022-08-07T22:13:17.309Z,97081.63
2022-08-07T22:16:38.995Z,97085.47
2022-08-07T22:19:18.043Z,97078.19
2022-08-07T22:22:10.815Z,97078.44
2022-08-07T22:25:08.345Z,97089.25
2022-08-07T22:28:06.359Z,97091.06
2022-08-07T22:30:59.676Z,97091.06
2022-08-07T22:33:53.210Z,97095.50
2022-08-07T22:36:47.698Z,97097.81
2022-08-07T22:39:52.798Z,97097.03
2022-08-07T22:42:53.784Z,97098.66
2022-08-07T22:46:04.308Z,97095.94
2022-08-07T22:48:56.172Z,97103.97
2022-08-07T22:51:36.595Z,97114.03
2022-08-07T22:54:49.232Z,97111.63
2022-08-07T22:57:37.599Z,97112.94
2022-08-07T23:00:29.084Z,97108.44
2022-08-07T23:03:23.865Z,97118.03
2022-08-07T23:06:08.648Z,97108.88
2022-08-07T23:10:00.827Z,97117.25
2022-08-07T23:11:59.345Z,97118.25
2022-08-07T23:14:50.062Z,97116.06
2022-08-07T23:17:32.802Z,97115.59
2022-08-07T23:20:51.675Z,97125.53
2022-08-07T23:24:04.384Z,97131.25
2022-08-07T23:26:39.957Z,97121.13
2022-08-07T23:30:36.012Z,97132.03
2022-08-07T23:34:21.642Z,97127.41
2022-08-07T23:35:23.938Z,97130.19
2022-08-07T23:38:01.517Z,97125.66
2022-08-07T23:40:39.686Z,97122.78
2022-08-07T23:43:37.702Z,97127.63
2022-08-07T23:46:30.894Z,97124.00
2022-08-07T23:49:50.067Z,97122.66
2022-08-07T23:52:58.451Z,97117.78
2022-08-07T23:55:53.826Z,97116.25
2022-08-07T23:58:43.316Z,97113.56
